sensor_id;sensor_type;location;lat;lon;timestamp;temperature;humidity
5009;DHT22;2523;51.058;6.922;2023-05-07T00:00:56;15.20;99.90
5009;DHT22;2523;51.058;6.922;2023-05-07T00:03:24;15.20;99.90
5009;DHT22;2523;51.058;6.922;2023-05-07T00:05:51;15.20;99.90
5009;DHT22;2523;51.058;6.922;2023-05-07T00:08:18;15.20;99.90
5009;DHT22;2523;51.058;6.922;2023-05-07T00:10:44;15.20;99.90
5009;DHT22;2523;51.058;6.922;2023-05-07T00:13:10;15.20;99.90
5009;DHT22;2523;51.058;6.922;2023-05-07T00:15:35;15.20;99.90
5009;DHT22;2523;51.058;6.922;2023-05-07T00:18:01;15.20;99.90
5009;DHT22;2523;51.058;6.922;2023-05-07T00:20:26;15.20;99.90
5009;DHT22;2523;51.058;6.922;2023-05-07T00:22:52;15.20;99.90
5009;DHT22;2523;51.058;6.922;2023-05-07T00:25:18;15.20;99.90
5009;DHT22;2523;51.058;6.922;2023-05-07T00:27:44;15.20;99.90
5009;DHT22;2523;51.058;6.922;2023-05-07T00:30:10;15.20;99.90
5009;DHT22;2523;51.058;6.922;2023-05-07T00:32:36;15.10;99.90
5009;DHT22;2523;51.058;6.922;2023-05-07T00:35:03;15.20;99.90
5009;DHT22;2523;51.058;6.922;2023-05-07T00:37:28;15.10;99.90
5009;DHT22;2523;51.058;6.922;2023-05-07T00:39:54;15.00;99.90
5009;DHT22;2523;51.058;6.922;2023-05-07T00:42:19;15.00;99.90
5009;DHT22;2523;51.058;6.922;2023-05-07T00:44:45;15.00;99.90
5009;DHT22;2523;51.058;6.922;2023-05-07T00:47:11;15.00;99.90
5009;DHT22;2523;51.058;6.922;2023-05-07T00:49:42;15.00;99.90
5009;DHT22;2523;51.058;6.922;2023-05-07T00:52:10;15.00;99.90
5009;DHT22;2523;51.058;6.922;2023-05-07T00:54:36;15.00;99.90
5009;DHT22;2523;51.058;6.922;2023-05-07T00:57:03;15.00;99.90
5009;DHT22;2523;51.058;6.922;2023-05-07T00:59:32;15.00;99.90
5009;DHT22;2523;51.058;6.922;2023-05-07T01:01:58;15.00;99.90
5009;DHT22;2523;51.058;6.922;2023-05-07T01:04:24;14.90;99.90
5009;DHT22;2523;51.058;6.922;2023-05-07T01:06:50;15.00;99.90
5009;DHT22;2523;51.058;6.922;2023-05-07T01:09:17;15.00;99.90
5009;DHT22;2523;51.058;6.922;2023-05-07T01:11:44;15.00;99.90
5009;DHT22;2523;51.058;6.922;2023-05-07T01:14:10;15.00;99.90
5009;DHT22;2523;51.058;6.922;2023-05-07T01:16:36;15.00;99.90
5009;DHT22;2523;51.058;6.922;2023-05-07T01:19:02;15.00;99.90
5009;DHT22;2523;51.058;6.922;2023-05-07T01:21:32;15.00;99.90
5009;DHT22;2523;51.058;6.922;2023-05-07T01:23:58;15.00;99.90
5009;DHT22;2523;51.058;6.922;2023-05-07T01:26:24;15.00;99.90
5009;DHT22;2523;51.058;6.922;2023-05-07T01:28:49;15.00;99.90
5009;DHT22;2523;51.058;6.922;2023-05-07T01:31:16;15.00;99.90
5009;DHT22;2523;51.058;6.922;2023-05-07T01:33:44;15.00;99.90
5009;DHT22;2523;51.058;6.922;2023-05-07T01:36:11;15.00;99.90
5009;DHT22;2523;51.058;6.922;2023-05-07T01:38:39;15.00;99.90
5009;DHT22;2523;51.058;6.922;2023-05-07T01:41:06;15.00;99.90
5009;DHT22;2523;51.058;6.922;2023-05-07T01:43:32;14.90;99.90
5009;DHT22;2523;51.058;6.922;2023-05-07T01:45:58;14.90;99.90
5009;DHT22;2523;51.058;6.922;2023-05-07T01:48:25;14.90;99.90
5009;DHT22;2523;51.058;6.922;2023-05-07T01:50:51;14.90;99.90
5009;DHT22;2523;51.058;6.922;2023-05-07T01:53:17;14.90;99.90
5009;DHT22;2523;51.058;6.922;2023-05-07T01:55:42;14.90;99.90
5009;DHT22;2523;51.058;6.922;2023-05-07T01:58:08;14.90;99.90
5009;DHT22;2523;51.058;6.922;2023-05-07T02:00:34;14.90;99.90
5009;DHT22;2523;51.058;6.922;2023-05-07T02:02:59;14.90;99.90
5009;DHT22;2523;51.058;6.922;2023-05-07T02:05:25;14.80;99.90
5009;DHT22;2523;51.058;6.922;2023-05-07T02:07:50;14.70;99.90
5009;DHT22;2523;51.058;6.922;2023-05-07T02:10:16;14.70;99.90
5009;DHT22;2523;51.058;6.922;2023-05-07T02:12:41;14.70;99.90
5009;DHT22;2523;51.058;6.922;2023-05-07T02:15:08;14.70;99.90
5009;DHT22;2523;51.058;6.922;2023-05-07T02:17:34;14.70;99.90
5009;DHT22;2523;51.058;6.922;2023-05-07T02:19:59;14.70;99.90
5009;DHT22;2523;51.058;6.922;2023-05-07T02:22:25;14.70;99.90
5009;DHT22;2523;51.058;6.922;2023-05-07T02:24:51;14.70;99.90
5009;DHT22;2523;51.058;6.922;2023-05-07T02:27:16;14.70;99.90
5009;DHT22;2523;51.058;6.922;2023-05-07T02:29:42;14.70;99.90
5009;DHT22;2523;51.058;6.922;2023-05-07T02:32:07;14.60;99.90
5009;DHT22;2523;51.058;6.922;2023-05-07T02:34:33;14.60;99.90
5009;DHT22;2523;51.058;6.922;2023-05-07T02:36:58;14.50;99.90
5009;DHT22;2523;51.058;6.922;2023-05-07T02:39:24;14.50;99.90
5009;DHT22;2523;51.058;6.922;2023-05-07T02:41:49;14.50;99.90
5009;DHT22;2523;51.058;6.922;2023-05-07T02:44:15;14.40;99.90
5009;DHT22;2523;51.058;6.922;2023-05-07T02:46:40;14.40;99.90
5009;DHT22;2523;51.058;6.922;2023-05-07T02:49:06;14.30;99.90
5009;DHT22;2523;51.058;6.922;2023-05-07T02:51:32;14.30;99.90
5009;DHT22;2523;51.058;6.922;2023-05-07T02:53:57;14.20;99.90
5009;DHT22;2523;51.058;6.922;2023-05-07T02:56:25;14.20;99.90
5009;DHT22;2523;51.058;6.922;2023-05-07T02:58:50;14.20;99.90
5009;DHT22;2523;51.058;6.922;2023-05-07T03:01:16;14.30;99.90
5009;DHT22;2523;51.058;6.922;2023-05-07T03:03:41;14.30;99.90
5009;DHT22;2523;51.058;6.922;2023-05-07T03:06:07;14.20;99.90
5009;DHT22;2523;51.058;6.922;2023-05-07T03:08:33;14.20;99.90
5009;DHT22;2523;51.058;6.922;2023-05-07T03:10:58;14.20;99.90
5009;DHT22;2523;51.058;6.922;2023-05-07T03:13:24;14.20;99.90
5009;DHT22;2523;51.058;6.922;2023-05-07T03:15:49;14.10;99.90
5009;DHT22;2523;51.058;6.922;2023-05-07T03:18:15;14.10;99.90
5009;DHT22;2523;51.058;6.922;2023-05-07T03:20:40;14.10;99.90
5009;DHT22;2523;51.058;6.922;2023-05-07T03:23:06;14.10;99.90
5009;DHT22;2523;51.058;6.922;2023-05-07T03:25:32;14.10;99.90
5009;DHT22;2523;51.058;6.922;2023-05-07T03:27:57;14.10;99.90
5009;DHT22;2523;51.058;6.922;2023-05-07T03:30:23;14.10;99.90
5009;DHT22;2523;51.058;6.922;2023-05-07T03:32:48;14.10;99.90
5009;DHT22;2523;51.058;6.922;2023-05-07T03:35:14;14.10;99.90
5009;DHT22;2523;51.058;6.922;2023-05-07T03:37:40;14.10;99.90
5009;DHT22;2523;51.058;6.922;2023-05-07T03:40:06;14.00;99.90
5009;DHT22;2523;51.058;6.922;2023-05-07T03:42:33;14.00;99.90
5009;DHT22;2523;51.058;6.922;2023-05-07T03:44:58;14.00;99.90
5009;DHT22;2523;51.058;6.922;2023-05-07T03:47:24;14.00;99.90
5009;DHT22;2523;51.058;6.922;2023-05-07T03:49:49;14.00;99.90
5009;DHT22;2523;51.058;6.922;2023-05-07T03:52:15;13.90;99.90
5009;DHT22;2523;51.058;6.922;2023-05-07T03:54:41;13.90;99.90
5009;DHT22;2523;51.058;6.922;2023-05-07T03:57:06;14.00;99.90
5009;DHT22;2523;51.058;6.922;2023-05-07T03:59:32;13.90;99.90
5009;DHT22;2523;51.058;6.922;2023-05-07T04:01:58;14.00;99.90
5009;DHT22;2523;51.058;6.922;2023-05-07T04:04:23;14.00;99.90
5009;DHT22;2523;51.058;6.922;2023-05-07T04:06:49;13.90;99.90
5009;DHT22;2523;51.058;6.922;2023-05-07T04:09:15;13.90;99.90
5009;DHT22;2523;51.058;6.922;2023-05-07T04:11:40;13.90;99.90
5009;DHT22;2523;51.058;6.922;2023-05-07T04:14:06;13.90;99.90
5009;DHT22;2523;51.058;6.922;2023-05-07T04:16:31;14.00;99.90
5009;DHT22;2523;51.058;6.922;2023-05-07T04:18:57;14.00;99.90
5009;DHT22;2523;51.058;6.922;2023-05-07T04:21:23;14.00;99.90
5009;DHT22;2523;51.058;6.922;2023-05-07T04:23:48;14.00;99.90
5009;DHT22;2523;51.058;6.922;2023-05-07T04:26:14;14.00;99.90
5009;DHT22;2523;51.058;6.922;2023-05-07T04:28:40;14.00;99.90
5009;DHT22;2523;51.058;6.922;2023-05-07T04:31:06;14.10;99.90
5009;DHT22;2523;51.058;6.922;2023-05-07T04:33:32;14.10;99.90
5009;DHT22;2523;51.058;6.922;2023-05-07T04:35:59;14.10;99.90
5009;DHT22;2523;51.058;6.922;2023-05-07T04:38:29;14.20;99.90
5009;DHT22;2523;51.058;6.922;2023-05-07T04:40:55;14.20;99.90
5009;DHT22;2523;51.058;6.922;2023-05-07T04:43:22;14.20;99.90
5009;DHT22;2523;51.058;6.922;2023-05-07T04:45:49;14.20;99.90
5009;DHT22;2523;51.058;6.922;2023-05-07T04:48:14;14.30;99.90
5009;DHT22;2523;51.058;6.922;2023-05-07T04:50:40;14.30;99.90
5009;DHT22;2523;51.058;6.922;2023-05-07T04:53:06;14.30;99.90
5009;DHT22;2523;51.058;6.922;2023-05-07T04:55:32;14.30;99.90
5009;DHT22;2523;51.058;6.922;2023-05-07T04:57:57;14.30;99.90
5009;DHT22;2523;51.058;6.922;2023-05-07T05:00:23;14.30;99.90
5009;DHT22;2523;51.058;6.922;2023-05-07T05:02:48;14.40;99.90
5009;DHT22;2523;51.058;6.922;2023-05-07T05:05:14;14.40;99.90
5009;DHT22;2523;51.058;6.922;2023-05-07T05:07:40;14.40;99.90
5009;DHT22;2523;51.058;6.922;2023-05-07T05:10:06;14.50;99.90
5009;DHT22;2523;51.058;6.922;2023-05-07T05:12:31;14.50;99.90
5009;DHT22;2523;51.058;6.922;2023-05-07T05:14:57;14.50;99.90
5009;DHT22;2523;51.058;6.922;2023-05-07T05:17:22;14.50;99.90
5009;DHT22;2523;51.058;6.922;2023-05-07T05:19:48;14.60;99.90
5009;DHT22;2523;51.058;6.922;2023-05-07T05:22:13;14.60;99.90
5009;DHT22;2523;51.058;6.922;2023-05-07T05:24:39;14.60;99.90
5009;DHT22;2523;51.058;6.922;2023-05-07T05:27:05;14.80;99.90
5009;DHT22;2523;51.058;6.922;2023-05-07T05:29:30;14.80;99.90
5009;DHT22;2523;51.058;6.922;2023-05-07T05:31:59;14.90;99.90
5009;DHT22;2523;51.058;6.922;2023-05-07T05:34:24;15.00;99.90
5009;DHT22;2523;51.058;6.922;2023-05-07T05:36:50;15.00;99.90
5009;DHT22;2523;51.058;6.922;2023-05-07T05:39:15;15.00;99.90
5009;DHT22;2523;51.058;6.922;2023-05-07T05:41:41;15.00;99.90
5009;DHT22;2523;51.058;6.922;2023-05-07T05:44:06;15.00;99.90
5009;DHT22;2523;51.058;6.922;2023-05-07T05:46:32;15.10;99.90
5009;DHT22;2523;51.058;6.922;2023-05-07T05:48:57;15.10;99.90
5009;DHT22;2523;51.058;6.922;2023-05-07T05:51:23;15.10;99.90
5009;DHT22;2523;51.058;6.922;2023-05-07T05:53:49;15.10;99.90
5009;DHT22;2523;51.058;6.922;2023-05-07T05:56:15;15.10;99.90
5009;DHT22;2523;51.058;6.922;2023-05-07T05:58:41;15.10;99.90
5009;DHT22;2523;51.058;6.922;2023-05-07T06:01:07;15.10;99.90
5009;DHT22;2523;51.058;6.922;2023-05-07T06:03:32;15.20;99.90
5009;DHT22;2523;51.058;6.922;2023-05-07T06:05:58;15.30;99.90
5009;DHT22;2523;51.058;6.922;2023-05-07T06:08:25;15.30;99.90
5009;DHT22;2523;51.058;6.922;2023-05-07T06:10:50;15.30;99.90
5009;DHT22;2523;51.058;6.922;2023-05-07T06:13:16;15.40;99.90
5009;DHT22;2523;51.058;6.922;2023-05-07T06:15:42;15.40;99.90
5009;DHT22;2523;51.058;6.922;2023-05-07T06:18:07;15.40;99.90
5009;DHT22;2523;51.058;6.922;2023-05-07T06:20:33;15.50;99.90
5009;DHT22;2523;51.058;6.922;2023-05-07T06:22:58;15.60;99.90
5009;DHT22;2523;51.058;6.922;2023-05-07T06:25:24;15.60;99.90
5009;DHT22;2523;51.058;6.922;2023-05-07T06:27:49;15.70;99.90
5009;DHT22;2523;51.058;6.922;2023-05-07T06:30:15;15.80;99.90
5009;DHT22;2523;51.058;6.922;2023-05-07T06:32:41;15.90;99.90
5009;DHT22;2523;51.058;6.922;2023-05-07T06:35:07;15.90;99.90
5009;DHT22;2523;51.058;6.922;2023-05-07T06:37:32;16.00;99.90
5009;DHT22;2523;51.058;6.922;2023-05-07T06:39:58;16.10;99.90
5009;DHT22;2523;51.058;6.922;2023-05-07T06:42:23;16.20;99.90
5009;DHT22;2523;51.058;6.922;2023-05-07T06:44:49;16.30;99.90
5009;DHT22;2523;51.058;6.922;2023-05-07T06:47:14;16.40;99.90
5009;DHT22;2523;51.058;6.922;2023-05-07T06:49:40;16.50;99.90
5009;DHT22;2523;51.058;6.922;2023-05-07T06:52:05;16.60;99.90
5009;DHT22;2523;51.058;6.922;2023-05-07T06:54:31;16.70;99.90
5009;DHT22;2523;51.058;6.922;2023-05-07T06:56:57;16.70;99.90
5009;DHT22;2523;51.058;6.922;2023-05-07T06:59:23;16.80;99.90
5009;DHT22;2523;51.058;6.922;2023-05-07T07:01:49;16.70;99.90
5009;DHT22;2523;51.058;6.922;2023-05-07T07:04:14;16.80;99.90
5009;DHT22;2523;51.058;6.922;2023-05-07T07:06:40;16.90;99.90
5009;DHT22;2523;51.058;6.922;2023-05-07T07:09:05;17.00;99.90
5009;DHT22;2523;51.058;6.922;2023-05-07T07:11:31;17.10;1.00
5009;DHT22;2523;51.058;6.922;2023-05-07T07:13:56;17.20;99.90
5009;DHT22;2523;51.058;6.922;2023-05-07T07:16:22;17.30;1.00
5009;DHT22;2523;51.058;6.922;2023-05-07T07:18:47;17.30;1.00
5009;DHT22;2523;51.058;6.922;2023-05-07T07:21:13;17.40;99.90
5009;DHT22;2523;51.058;6.922;2023-05-07T07:23:38;17.40;1.00
5009;DHT22;2523;51.058;6.922;2023-05-07T07:26:04;17.60;19.70
5009;DHT22;2523;51.058;6.922;2023-05-07T07:28:31;17.60;99.90
5009;DHT22;2523;51.058;6.922;2023-05-07T07:30:56;17.60;99.90
5009;DHT22;2523;51.058;6.922;2023-05-07T07:33:22;17.70;1.00
5009;DHT22;2523;51.058;6.922;2023-05-07T07:35:47;17.70;1.00
5009;DHT22;2523;51.058;6.922;2023-05-07T07:38:13;17.80;1.00
5009;DHT22;2523;51.058;6.922;2023-05-07T07:40:39;17.80;99.90
5009;DHT22;2523;51.058;6.922;2023-05-07T07:43:04;17.90;99.90
5009;DHT22;2523;51.058;6.922;2023-05-07T07:45:30;17.90;99.90
5009;DHT22;2523;51.058;6.922;2023-05-07T07:47:55;17.90;39.60
5009;DHT22;2523;51.058;6.922;2023-05-07T07:50:21;18.00;99.90
5009;DHT22;2523;51.058;6.922;2023-05-07T07:52:47;18.10;1.00
5009;DHT22;2523;51.058;6.922;2023-05-07T07:55:13;18.30;49.60
5009;DHT22;2523;51.058;6.922;2023-05-07T07:57:39;18.40;1.00
5009;DHT22;2523;51.058;6.922;2023-05-07T08:00:05;18.50;1.00
5009;DHT22;2523;51.058;6.922;2023-05-07T08:02:32;18.50;1.00
5009;DHT22;2523;51.058;6.922;2023-05-07T08:04:58;18.60;1.00
5009;DHT22;2523;51.058;6.922;2023-05-07T08:07:23;18.70;1.00
5009;DHT22;2523;51.058;6.922;2023-05-07T08:09:49;18.60;1.00
5009;DHT22;2523;51.058;6.922;2023-05-07T08:12:14;18.70;1.00
5009;DHT22;2523;51.058;6.922;2023-05-07T08:14:40;18.90;1.00
5009;DHT22;2523;51.058;6.922;2023-05-07T08:17:06;19.00;1.00
5009;DHT22;2523;51.058;6.922;2023-05-07T08:19:32;19.10;1.00
5009;DHT22;2523;51.058;6.922;2023-05-07T08:21:57;19.10;1.00
5009;DHT22;2523;51.058;6.922;2023-05-07T08:24:24;19.20;1.00
5009;DHT22;2523;51.058;6.922;2023-05-07T08:26:49;19.20;1.00
5009;DHT22;2523;51.058;6.922;2023-05-07T08:29:15;19.20;1.00
5009;DHT22;2523;51.058;6.922;2023-05-07T08:31:40;19.20;1.00
5009;DHT22;2523;51.058;6.922;2023-05-07T08:34:06;19.20;1.00
5009;DHT22;2523;51.058;6.922;2023-05-07T08:36:32;19.30;1.00
5009;DHT22;2523;51.058;6.922;2023-05-07T08:38:58;19.20;1.00
5009;DHT22;2523;51.058;6.922;2023-05-07T08:41:24;19.30;1.00
5009;DHT22;2523;51.058;6.922;2023-05-07T08:43:51;19.40;1.00
5009;DHT22;2523;51.058;6.922;2023-05-07T08:46:21;19.40;1.00
5009;DHT22;2523;51.058;6.922;2023-05-07T08:48:51;19.40;1.00
5009;DHT22;2523;51.058;6.922;2023-05-07T08:51:19;19.40;1.00
5009;DHT22;2523;51.058;6.922;2023-05-07T08:53:45;19.50;1.00
5009;DHT22;2523;51.058;6.922;2023-05-07T08:56:11;19.50;1.00
5009;DHT22;2523;51.058;6.922;2023-05-07T08:58:37;19.50;1.00
5009;DHT22;2523;51.058;6.922;2023-05-07T09:01:07;19.50;1.00
5009;DHT22;2523;51.058;6.922;2023-05-07T09:03:33;19.70;1.00
5009;DHT22;2523;51.058;6.922;2023-05-07T09:05:59;19.90;1.00
5009;DHT22;2523;51.058;6.922;2023-05-07T09:08:26;20.00;1.00
5009;DHT22;2523;51.058;6.922;2023-05-07T09:10:52;20.00;1.00
5009;DHT22;2523;51.058;6.922;2023-05-07T09:13:18;20.20;1.00
5009;DHT22;2523;51.058;6.922;2023-05-07T09:15:44;20.30;1.00
5009;DHT22;2523;51.058;6.922;2023-05-07T09:18:10;20.30;1.00
5009;DHT22;2523;51.058;6.922;2023-05-07T09:20:39;20.40;1.00
5009;DHT22;2523;51.058;6.922;2023-05-07T09:23:06;20.60;99.90
5009;DHT22;2523;51.058;6.922;2023-05-07T09:25:34;20.90;1.00
5009;DHT22;2523;51.058;6.922;2023-05-07T09:28:00;21.00;99.90
5009;DHT22;2523;51.058;6.922;2023-05-07T09:30:30;21.10;99.90
5009;DHT22;2523;51.058;6.922;2023-05-07T09:32:57;21.20;1.00
5009;DHT22;2523;51.058;6.922;2023-05-07T09:35:23;21.10;1.00
5009;DHT22;2523;51.058;6.922;2023-05-07T09:37:53;21.10;99.90
5009;DHT22;2523;51.058;6.922;2023-05-07T09:40:21;20.90;99.90
5009;DHT22;2523;51.058;6.922;2023-05-07T09:42:48;21.00;1.00
5009;DHT22;2523;51.058;6.922;2023-05-07T09:45:15;20.90;1.00
5009;DHT22;2523;51.058;6.922;2023-05-07T09:47:42;21.00;1.00
5009;DHT22;2523;51.058;6.922;2023-05-07T09:50:10;21.20;1.00
5009;DHT22;2523;51.058;6.922;2023-05-07T09:52:36;21.20;1.00
5009;DHT22;2523;51.058;6.922;2023-05-07T09:55:04;21.30;99.90
5009;DHT22;2523;51.058;6.922;2023-05-07T09:57:32;21.50;99.90
5009;DHT22;2523;51.058;6.922;2023-05-07T09:59:59;21.70;99.90
5009;DHT22;2523;51.058;6.922;2023-05-07T10:02:29;21.80;99.90
5009;DHT22;2523;51.058;6.922;2023-05-07T10:04:55;21.90;99.90
5009;DHT22;2523;51.058;6.922;2023-05-07T10:07:22;22.00;99.90
5009;DHT22;2523;51.058;6.922;2023-05-07T10:09:50;22.00;99.90
5009;DHT22;2523;51.058;6.922;2023-05-07T10:12:17;22.00;99.90
5009;DHT22;2523;51.058;6.922;2023-05-07T10:14:43;22.10;99.90
5009;DHT22;2523;51.058;6.922;2023-05-07T10:17:11;22.20;99.90
5009;DHT22;2523;51.058;6.922;2023-05-07T10:19:38;22.50;99.90
5009;DHT22;2523;51.058;6.922;2023-05-07T10:22:05;22.80;99.90
5009;DHT22;2523;51.058;6.922;2023-05-07T10:24:35;22.90;99.90
5009;DHT22;2523;51.058;6.922;2023-05-07T10:27:05;23.10;99.90
5009;DHT22;2523;51.058;6.922;2023-05-07T10:29:38;23.30;99.90
5009;DHT22;2523;51.058;6.922;2023-05-07T10:34:54;23.80;99.90
5009;DHT22;2523;51.058;6.922;2023-05-07T10:37:22;23.70;99.90
5009;DHT22;2523;51.058;6.922;2023-05-07T10:39:48;23.70;99.90
5009;DHT22;2523;51.058;6.922;2023-05-07T10:42:15;23.80;99.90
5009;DHT22;2523;51.058;6.922;2023-05-07T10:44:40;23.70;99.90
5009;DHT22;2523;51.058;6.922;2023-05-07T10:47:07;23.70;99.90
5009;DHT22;2523;51.058;6.922;2023-05-07T10:49:35;23.50;99.90
5009;DHT22;2523;51.058;6.922;2023-05-07T10:52:14;23.50;99.90
5009;DHT22;2523;51.058;6.922;2023-05-07T10:54:42;24.00;99.90
5009;DHT22;2523;51.058;6.922;2023-05-07T10:59:52;24.50;99.90
5009;DHT22;2523;51.058;6.922;2023-05-07T11:02:19;24.60;99.90
5009;DHT22;2523;51.058;6.922;2023-05-07T11:04:45;24.60;99.90
5009;DHT22;2523;51.058;6.922;2023-05-07T11:07:31;24.60;99.90
5009;DHT22;2523;51.058;6.922;2023-05-07T11:09:58;24.40;99.90
5009;DHT22;2523;51.058;6.922;2023-05-07T11:15:05;24.20;99.90
5009;DHT22;2523;51.058;6.922;2023-05-07T11:17:32;24.20;99.90
5009;DHT22;2523;51.058;6.922;2023-05-07T11:20:00;24.50;99.90
5009;DHT22;2523;51.058;6.922;2023-05-07T11:25:06;24.70;99.90
5009;DHT22;2523;51.058;6.922;2023-05-07T11:27:32;24.90;99.90
5009;DHT22;2523;51.058;6.922;2023-05-07T11:29:58;24.90;99.90
5009;DHT22;2523;51.058;6.922;2023-05-07T11:32:26;24.80;99.90
5009;DHT22;2523;51.058;6.922;2023-05-07T11:34:56;24.30;99.90
5009;DHT22;2523;51.058;6.922;2023-05-07T11:37:23;24.50;99.90
5009;DHT22;2523;51.058;6.922;2023-05-07T11:39:49;24.50;99.90
5009;DHT22;2523;51.058;6.922;2023-05-07T11:42:31;24.30;99.90
5009;DHT22;2523;51.058;6.922;2023-05-07T11:44:57;24.40;99.90
5009;DHT22;2523;51.058;6.922;2023-05-07T11:47:23;24.60;99.90
5009;DHT22;2523;51.058;6.922;2023-05-07T11:49:50;24.70;99.90
5009;DHT22;2523;51.058;6.922;2023-05-07T11:52:17;24.80;99.90
5009;DHT22;2523;51.058;6.922;2023-05-07T11:54:50;25.10;99.90
5009;DHT22;2523;51.058;6.922;2023-05-07T11:57:16;25.10;99.90
5009;DHT22;2523;51.058;6.922;2023-05-07T11:59:42;24.90;99.90
5009;DHT22;2523;51.058;6.922;2023-05-07T12:02:09;24.90;99.90
5009;DHT22;2523;51.058;6.922;2023-05-07T12:04:35;24.70;99.90
5009;DHT22;2523;51.058;6.922;2023-05-07T12:07:01;24.70;99.90
5009;DHT22;2523;51.058;6.922;2023-05-07T12:09:27;24.70;99.90
5009;DHT22;2523;51.058;6.922;2023-05-07T12:11:52;24.90;99.90
5009;DHT22;2523;51.058;6.922;2023-05-07T12:14:18;24.80;99.90
5009;DHT22;2523;51.058;6.922;2023-05-07T12:16:44;24.80;99.90
5009;DHT22;2523;51.058;6.922;2023-05-07T12:19:10;24.60;99.90
5009;DHT22;2523;51.058;6.922;2023-05-07T12:21:38;24.60;99.90
5009;DHT22;2523;51.058;6.922;2023-05-07T12:24:04;24.20;99.90
5009;DHT22;2523;51.058;6.922;2023-05-07T12:26:30;24.00;99.90
5009;DHT22;2523;51.058;6.922;2023-05-07T12:28:57;23.80;99.90
5009;DHT22;2523;51.058;6.922;2023-05-07T12:31:25;23.70;99.90
5009;DHT22;2523;51.058;6.922;2023-05-07T12:33:51;23.50;99.90
5009;DHT22;2523;51.058;6.922;2023-05-07T12:36:17;23.50;99.90
5009;DHT22;2523;51.058;6.922;2023-05-07T12:38:42;23.30;99.90
5009;DHT22;2523;51.058;6.922;2023-05-07T12:41:09;23.20;99.90
5009;DHT22;2523;51.058;6.922;2023-05-07T12:43:35;23.00;99.90
5009;DHT22;2523;51.058;6.922;2023-05-07T12:46:04;23.00;99.90
5009;DHT22;2523;51.058;6.922;2023-05-07T12:48:30;22.90;99.90
5009;DHT22;2523;51.058;6.922;2023-05-07T12:51:00;22.70;99.90
5009;DHT22;2523;51.058;6.922;2023-05-07T12:53:27;22.70;99.90
5009;DHT22;2523;51.058;6.922;2023-05-07T12:55:58;22.70;99.90
5009;DHT22;2523;51.058;6.922;2023-05-07T13:00:52;22.70;99.90
5009;DHT22;2523;51.058;6.922;2023-05-07T13:05:49;22.60;99.90
5009;DHT22;2523;51.058;6.922;2023-05-07T13:08:39;22.60;99.90
5009;DHT22;2523;51.058;6.922;2023-05-07T13:11:12;22.50;99.90
5009;DHT22;2523;51.058;6.922;2023-05-07T13:13:39;22.60;99.90
5009;DHT22;2523;51.058;6.922;2023-05-07T13:16:08;22.60;99.90
5009;DHT22;2523;51.058;6.922;2023-05-07T13:18:34;22.70;99.90
5009;DHT22;2523;51.058;6.922;2023-05-07T13:21:00;22.70;99.90
5009;DHT22;2523;51.058;6.922;2023-05-07T13:23:26;22.80;99.90
5009;DHT22;2523;51.058;6.922;2023-05-07T13:25:52;22.80;99.90
5009;DHT22;2523;51.058;6.922;2023-05-07T13:28:19;22.90;99.90
5009;DHT22;2523;51.058;6.922;2023-05-07T13:30:45;22.80;99.90
5009;DHT22;2523;51.058;6.922;2023-05-07T13:33:11;22.80;99.90
5009;DHT22;2523;51.058;6.922;2023-05-07T13:35:37;22.80;99.90
5009;DHT22;2523;51.058;6.922;2023-05-07T13:38:03;22.70;99.90
5009;DHT22;2523;51.058;6.922;2023-05-07T13:40:28;22.50;99.90
5009;DHT22;2523;51.058;6.922;2023-05-07T13:42:58;22.40;99.90
5009;DHT22;2523;51.058;6.922;2023-05-07T13:45:24;22.30;99.90
5009;DHT22;2523;51.058;6.922;2023-05-07T13:47:51;22.30;99.90
5009;DHT22;2523;51.058;6.922;2023-05-07T13:50:17;22.20;99.90
5009;DHT22;2523;51.058;6.922;2023-05-07T13:52:43;22.00;99.90
5009;DHT22;2523;51.058;6.922;2023-05-07T13:55:16;21.80;1.00
5009;DHT22;2523;51.058;6.922;2023-05-07T13:57:42;21.60;1.00
5009;DHT22;2523;51.058;6.922;2023-05-07T14:00:08;21.40;1.00
5009;DHT22;2523;51.058;6.922;2023-05-07T14:02:34;21.30;1.00
5009;DHT22;2523;51.058;6.922;2023-05-07T14:05:00;21.30;1.00
5009;DHT22;2523;51.058;6.922;2023-05-07T14:07:25;21.30;1.00
5009;DHT22;2523;51.058;6.922;2023-05-07T14:09:51;21.30;1.00
5009;DHT22;2523;51.058;6.922;2023-05-07T14:12:16;21.20;1.00
5009;DHT22;2523;51.058;6.922;2023-05-07T14:14:42;21.30;1.00
5009;DHT22;2523;51.058;6.922;2023-05-07T14:17:07;21.40;99.90
5009;DHT22;2523;51.058;6.922;2023-05-07T14:19:33;21.40;1.00
5009;DHT22;2523;51.058;6.922;2023-05-07T14:21:59;21.40;1.00
5009;DHT22;2523;51.058;6.922;2023-05-07T14:24:24;21.40;1.00
5009;DHT22;2523;51.058;6.922;2023-05-07T14:26:50;21.50;1.00
5009;DHT22;2523;51.058;6.922;2023-05-07T14:29:16;21.40;1.00
5009;DHT22;2523;51.058;6.922;2023-05-07T14:31:44;21.10;1.00
5009;DHT22;2523;51.058;6.922;2023-05-07T14:34:10;20.80;1.00
5009;DHT22;2523;51.058;6.922;2023-05-07T14:36:35;20.70;1.00
5009;DHT22;2523;51.058;6.922;2023-05-07T14:39:01;20.60;1.00
5009;DHT22;2523;51.058;6.922;2023-05-07T14:41:27;20.50;1.00
5009;DHT22;2523;51.058;6.922;2023-05-07T14:43:53;20.40;1.00
5009;DHT22;2523;51.058;6.922;2023-05-07T14:46:19;20.40;1.00
5009;DHT22;2523;51.058;6.922;2023-05-07T14:48:45;20.40;1.00
5009;DHT22;2523;51.058;6.922;2023-05-07T14:51:11;20.40;1.00
5009;DHT22;2523;51.058;6.922;2023-05-07T14:53:37;20.20;1.00
5009;DHT22;2523;51.058;6.922;2023-05-07T14:56:03;20.10;1.00
5009;DHT22;2523;51.058;6.922;2023-05-07T14:58:29;20.00;1.00
5009;DHT22;2523;51.058;6.922;2023-05-07T15:00:54;20.00;1.00
5009;DHT22;2523;51.058;6.922;2023-05-07T15:03:20;20.00;1.00
5009;DHT22;2523;51.058;6.922;2023-05-07T15:05:46;20.10;1.00
5009;DHT22;2523;51.058;6.922;2023-05-07T15:08:12;19.80;1.00
5009;DHT22;2523;51.058;6.922;2023-05-07T15:10:38;19.60;1.00
5009;DHT22;2523;51.058;6.922;2023-05-07T15:13:07;19.70;1.00
5009;DHT22;2523;51.058;6.922;2023-05-07T15:15:33;19.80;1.00
5009;DHT22;2523;51.058;6.922;2023-05-07T15:17:58;19.70;1.00
5009;DHT22;2523;51.058;6.922;2023-05-07T15:20:25;19.60;1.00
5009;DHT22;2523;51.058;6.922;2023-05-07T15:22:51;19.70;99.90
5009;DHT22;2523;51.058;6.922;2023-05-07T15:25:17;19.70;99.90
5009;DHT22;2523;51.058;6.922;2023-05-07T15:27:42;19.70;99.90
5009;DHT22;2523;51.058;6.922;2023-05-07T15:30:08;19.50;99.90
5009;DHT22;2523;51.058;6.922;2023-05-07T15:32:35;19.40;99.90
5009;DHT22;2523;51.058;6.922;2023-05-07T15:35:01;19.40;1.00
5009;DHT22;2523;51.058;6.922;2023-05-07T15:37:27;19.30;1.00
5009;DHT22;2523;51.058;6.922;2023-05-07T15:39:53;19.40;1.00
5009;DHT22;2523;51.058;6.922;2023-05-07T15:42:18;19.50;1.00
5009;DHT22;2523;51.058;6.922;2023-05-07T15:44:44;19.40;1.00
5009;DHT22;2523;51.058;6.922;2023-05-07T15:47:10;19.40;1.00
5009;DHT22;2523;51.058;6.922;2023-05-07T15:49:35;19.40;1.00
5009;DHT22;2523;51.058;6.922;2023-05-07T15:52:01;19.50;1.00
5009;DHT22;2523;51.058;6.922;2023-05-07T15:54:26;19.60;1.00
5009;DHT22;2523;51.058;6.922;2023-05-07T15:56:52;19.60;99.90
5009;DHT22;2523;51.058;6.922;2023-05-07T15:59:17;19.70;99.90
5009;DHT22;2523;51.058;6.922;2023-05-07T16:01:43;19.80;99.90
5009;DHT22;2523;51.058;6.922;2023-05-07T16:04:09;19.90;99.90
5009;DHT22;2523;51.058;6.922;2023-05-07T16:06:35;20.00;99.90
5009;DHT22;2523;51.058;6.922;2023-05-07T16:09:00;20.00;99.90
5009;DHT22;2523;51.058;6.922;2023-05-07T16:11:26;20.00;99.90
5009;DHT22;2523;51.058;6.922;2023-05-07T16:13:55;19.90;99.90